Time;durP1;ratioP1;P1;durP2;ratioP2;P2;SDS_P1;SDS_P2;PMS_P1;PMS_P2;Temp;Humidity;BMP_temperature;BMP_pressure;BME280_temperature;BME280_humidity;BME280_pressure;Samples;Min_cycle;Max_cycle;Signal;HPM_P1;HPM_P2
2021/03/13 00:01:05;;;;;;;2.13;1.53;;;22.90;48.80;;;;;;5033881;28;20180;-69
2021/03/13 00:03:31;;;;;;;3.33;1.80;;;22.80;48.70;;;;;;5033795;28;20414;-69
2021/03/13 00:05:56;;;;;;;2.30;1.70;;;22.80;48.70;;;;;;5033708;28;20523;-69
2021/03/13 00:08:22;;;;;;;2.80;1.97;;;22.80;48.70;;;;;;5032390;28;20231;-69
2021/03/13 00:10:48;;;;;;;2.00;1.40;;;22.80;48.70;;;;;;5033742;28;20183;-69
2021/03/13 00:13:14;;;;;;;2.23;1.87;;;22.80;48.70;;;;;;5033674;28;20546;-69
2021/03/13 00:15:41;;;;;;;2.70;1.50;;;22.80;48.70;;;;;;5033616;28;20182;-69
2021/03/13 00:18:08;;;;;;;1.97;1.57;;;22.80;48.70;;;;;;5032642;28;20661;-69
2021/03/13 00:20:35;;;;;;;3.10;1.80;;;22.80;48.70;;;;;;5032367;28;20453;-69
2021/03/13 00:23:02;;;;;;;2.73;1.43;;;22.80;48.70;;;;;;5033441;28;20479;-69
2021/03/13 00:25:29;;;;;;;2.20;1.50;;;22.80;48.70;;;;;;5033544;28;20414;-69
2021/03/13 00:27:56;;;;;;;1.77;1.30;;;22.80;48.70;;;;;;5033559;28;20410;-68
2021/03/13 00:30:34;;;;;;;1.80;1.40;;;22.80;48.70;;;;;;5032958;28;20447;-69
2021/03/13 00:33:11;;;;;;;2.63;1.70;;;22.80;48.80;;;;;;5033553;28;20411;-69
2021/03/13 00:35:38;;;;;;;2.27;1.57;;;22.80;48.80;;;;;;5033384;28;20757;-69
2021/03/13 00:38:04;;;;;;;2.10;1.60;;;22.80;48.80;;;;;;5031843;28;20438;-69
2021/03/13 00:40:31;;;;;;;1.60;1.20;;;22.80;48.80;;;;;;5033183;28;20415;-69
2021/03/13 00:42:59;;;;;;;1.73;1.37;;;22.80;48.80;;;;;;5033162;28;20410;-69
2021/03/13 00:45:26;;;;;;;1.53;1.20;;;22.80;48.80;;;;;;5033106;28;20481;-69
2021/03/13 00:47:52;;;;;;;1.80;1.37;;;22.80;48.80;;;;;;5033196;28;20407;-69
2021/03/13 00:50:21;;;;;;;1.87;1.23;;;22.80;48.80;;;;;;5031890;28;20422;-69
2021/03/13 00:52:47;;;;;;;2.13;1.40;;;22.80;48.80;;;;;;5031801;28;20419;-69
2021/03/13 00:55:13;;;;;;;1.87;1.53;;;22.80;48.80;;;;;;5033105;28;20461;-69
2021/03/13 00:57:39;;;;;;;1.90;1.43;;;22.80;48.80;;;;;;5033612;28;20509;-69
2021/03/13 01:00:07;;;;;;;2.27;1.37;;;22.80;48.80;;;;;;5031724;28;20509;-69
2021/03/13 01:02:32;;;;;;;1.40;1.20;;;22.80;48.80;;;;;;5033237;28;20183;-69
2021/03/13 01:05:01;;;;;;;2.40;1.63;;;22.80;48.80;;;;;;5032971;28;20414;-69
2021/03/13 01:07:27;;;;;;;3.10;2.23;;;22.80;48.80;;;;;;5032717;28;20203;-69
2021/03/13 01:09:53;;;;;;;2.20;1.50;;;22.80;48.80;;;;;;5032925;28;20461;-69
2021/03/13 01:12:18;;;;;;;1.87;1.50;;;22.80;48.80;;;;;;5032862;28;20171;-69
2021/03/13 01:14:44;;;;;;;1.90;1.40;;;22.80;49.30;;;;;;5032886;28;20179;-69
2021/03/13 01:17:10;;;;;;;2.10;1.23;;;22.80;48.80;;;;;;5032847;28;20184;-68
2021/03/13 01:19:35;;;;;;;1.70;1.37;;;22.80;48.80;;;;;;5032745;28;20245;-68
2021/03/13 01:22:01;;;;;;;1.87;1.30;;;22.80;48.80;;;;;;5031572;28;20180;-69
2021/03/13 01:24:27;;;;;;;2.10;1.50;;;22.80;48.80;;;;;;5033012;28;20657;-69
2021/03/13 01:26:53;;;;;;;1.67;1.37;;;22.80;48.80;;;;;;5032725;28;20454;-67
2021/03/13 01:29:18;;;;;;;2.20;1.43;;;22.80;48.70;;;;;;5032847;28;20196;-68
2021/03/13 01:31:44;;;;;;;1.67;1.20;;;22.80;48.80;;;;;;5032998;28;20172;-69
2021/03/13 01:34:10;;;;;;;2.40;1.70;;;22.80;49.30;;;;;;5032656;28;20187;-69
2021/03/13 01:36:35;;;;;;;2.23;1.40;;;22.70;48.70;;;;;;5032788;28;20195;-69
2021/03/13 01:39:01;;;;;;;2.00;1.57;;;22.80;48.80;;;;;;5032562;28;20254;-69
2021/03/13 01:41:26;;;;;;;2.90;1.73;;;22.70;48.70;;;;;;5034409;28;20605;-68
2021/03/13 01:43:52;;;;;;;1.70;1.20;;;22.80;48.80;;;;;;5036469;28;20175;-69
2021/03/13 01:46:18;;;;;;;1.80;1.20;;;22.70;48.70;;;;;;5036612;28;20203;-67
2021/03/13 01:48:48;;;;;;;2.30;1.57;;;22.80;48.80;;;;;;5036270;28;20241;-69
2021/03/13 01:51:14;;;;;;;1.83;1.40;;;22.70;48.70;;;;;;5036279;28;20172;-69
2021/03/13 01:53:40;;;;;;;2.03;1.40;;;22.70;48.70;;;;;;5036224;28;20402;-69
2021/03/13 01:56:06;;;;;;;2.40;1.63;;;22.70;48.70;;;;;;5036389;28;20819;-69
2021/03/13 01:58:32;;;;;;;1.90;1.37;;;22.70;48.70;;;;;;5036139;28;20270;-67
2021/03/13 02:00:58;;;;;;;1.70;1.30;;;22.70;48.70;;;;;;5036150;28;20254;-68
2021/03/13 02:03:24;;;;;;;1.90;1.17;;;22.70;48.70;;;;;;5036172;28;20815;-69
2021/03/13 02:05:50;;;;;;;1.67;1.30;;;22.70;48.70;;;;;;5036277;28;20600;-69
2021/03/13 02:08:51;;;;;;;2.50;1.40;;;22.70;48.80;;;;;;5036157;28;20217;-69
2021/03/13 02:11:30;;;;;;;1.77;1.40;;;22.80;48.80;;;;;;5034210;28;20423;-68
2021/03/13 02:14:18;;;;;;;2.13;1.80;;;22.70;48.80;;;;;;5036234;28;20428;-69
2021/03/13 02:17:16;;;;;;;2.00;1.60;;;22.70;48.80;;;;;;5034626;28;20411;-69
2021/03/13 02:20:16;;;;;;;1.50;1.10;;;22.70;48.80;;;;;;5035495;28;20481;-69
2021/03/13 02:22:42;;;;;;;1.87;1.50;;;22.70;48.80;;;;;;5036075;28;20803;-69
2021/03/13 02:25:47;;;;;;;1.80;1.37;;;22.70;48.90;;;;;;5035673;28;20445;-69
2021/03/13 02:28:36;;;;;;;2.13;1.90;;;22.70;48.80;;;;;;5035650;28;20422;-69
2021/03/13 02:31:02;;;;;;;1.90;1.30;;;22.70;48.90;;;;;;5014806;28;20421;-69
2021/03/13 02:33:31;;;;;;;1.87;1.30;;;22.70;48.90;;;;;;5035795;28;20402;-69
2021/03/13 02:36:02;;;;;;;1.67;1.10;;;22.70;48.90;;;;;;5035454;28;20442;-69
2021/03/13 02:38:46;;;;;;;1.67;1.47;;;22.70;48.80;;;;;;5035467;28;20442;-69
2021/03/13 02:41:16;;;;;;;1.97;1.77;;;22.70;48.80;;;;;;5034156;28;20402;-69
2021/03/13 02:43:46;;;;;;;2.03;1.30;;;22.70;48.80;;;;;;5035451;28;20746;-69
2021/03/13 02:46:14;;;;;;;1.57;1.20;;;22.70;48.80;;;;;;5035228;28;20820;-66
2021/03/13 02:48:41;;;;;;;2.33;1.87;;;22.70;48.80;;;;;;5035207;28;20484;-69
2021/03/13 02:51:07;;;;;;;1.57;0.97;;;22.70;48.80;;;;;;5034022;28;20413;-69
2021/03/13 02:53:35;;;;;;;1.60;1.20;;;22.70;48.80;;;;;;5035285;28;20407;-69
2021/03/13 02:56:03;;;;;;;1.47;1.20;;;22.70;48.80;;;;;;5035406;28;20411;-69
2021/03/13 02:58:31;;;;;;;1.73;1.40;;;22.70;48.80;;;;;;5035030;28;20784;-69
2021/03/13 03:00:57;;;;;;;1.70;1.30;;;22.70;48.80;;;;;;5034985;28;20464;-69
2021/03/13 03:03:23;;;;;;;1.60;1.10;;;22.70;48.80;;;;;;5033738;28;20414;-69
2021/03/13 03:05:52;;;;;;;1.70;1.20;;;22.70;48.80;;;;;;5035558;28;20457;-69
2021/03/13 03:08:20;;;;;;;1.50;1.07;;;22.70;48.80;;;;;;5034854;28;20418;-69
2021/03/13 03:10:46;;;;;;;2.07;1.30;;;22.70;49.30;;;;;;5033520;28;20423;-69
2021/03/13 03:13:12;;;;;;;1.80;1.40;;;22.60;48.70;;;;;;5034820;28;20992;-68
2021/03/13 03:15:39;;;;;;;1.93;1.40;;;22.70;48.80;;;;;;5034804;28;20410;-69
2021/03/13 03:18:10;;;;;;;3.67;1.40;;;22.70;48.80;;;;;;5034597;28;20406;-69
2021/03/13 03:20:37;;;;;;;1.73;1.20;;;22.70;48.80;;;;;;5034682;28;20445;-69
2021/03/13 03:23:05;;;;;;;1.30;1.20;;;22.70;48.80;;;;;;5034817;28;20417;-69
2021/03/13 03:25:30;;;;;;;2.23;1.23;;;22.70;48.80;;;;;;5034519;28;20415;-69
2021/03/13 03:27:56;;;;;;;2.50;1.20;;;22.60;48.70;;;;;;5034473;28;20410;-69
2021/03/13 03:30:33;;;;;;;1.63;1.30;;;22.60;48.70;;;;;;5034706;28;20255;-69
2021/03/13 03:33:00;;;;;;;2.13;1.40;;;22.70;48.80;;;;;;5034467;28;20589;-69
2021/03/13 03:35:27;;;;;;;2.60;1.20;;;22.60;48.70;;;;;;5034367;28;20790;-69
2021/03/13 03:37:55;;;;;;;1.90;1.33;;;22.60;48.70;;;;;;5034359;28;20929;-69
2021/03/13 03:40:23;;;;;;;2.63;1.60;;;22.60;48.70;;;;;;5034253;28;20414;-69
2021/03/13 03:43:13;;;;;;;1.40;1.00;;;22.60;48.70;;;;;;5034215;28;20493;-69
2021/03/13 03:45:46;;;;;;;1.30;1.10;;;22.60;48.70;;;;;;5034136;28;20386;-69
2021/03/13 03:48:14;;;;;;;2.00;1.23;;;22.60;48.70;;;;;;5034092;28;20496;-69
2021/03/13 03:50:43;;;;;;;1.73;1.17;;;22.60;48.70;;;;;;5034062;28;20433;-69
2021/03/13 03:53:27;;;;;;;1.40;1.10;;;22.60;48.70;;;;;;5033928;28;20407;-69
2021/03/13 03:55:55;;;;;;;1.50;1.10;;;22.60;48.70;;;;;;5032733;28;20414;-69
2021/03/13 03:58:27;;;;;;;1.87;1.20;;;22.50;48.70;;;;;;5033915;28;20532;-69
2021/03/13 04:00:55;;;;;;;1.57;1.10;;;22.50;48.70;;;;;;5033734;28;20422;-69
2021/03/13 04:03:23;;;;;;;1.60;1.30;;;22.60;48.80;;;;;;5033361;28;20461;-69
2021/03/13 04:05:49;;;;;;;1.67;1.27;;;22.50;48.70;;;;;;5033702;28;20956;-68
2021/03/13 04:08:18;;;;;;;2.43;1.37;;;22.50;48.70;;;;;;5033672;28;20418;-69
2021/03/13 04:10:47;;;;;;;1.30;0.87;;;22.60;48.80;;;;;;5032421;28;20432;-69
2021/03/13 04:13:16;;;;;;;2.40;1.30;;;22.60;48.80;;;;;;5033687;28;20460;-69
2021/03/13 04:15:43;;;;;;;1.40;1.10;;;22.50;48.70;;;;;;5033558;28;20769;-69
2021/03/13 04:18:10;;;;;;;1.30;1.07;;;22.50;48.70;;;;;;5033496;28;20827;-69
2021/03/13 04:20:39;;;;;;;1.73;1.17;;;22.50;48.70;;;;;;5032284;28;20421;-68
2021/03/13 04:23:08;;;;;;;1.33;1.03;;;22.50;48.70;;;;;;5033509;28;20402;-68
2021/03/13 04:25:35;;;;;;;1.47;1.10;;;22.50;48.70;;;;;;5033427;28;20418;-69
2021/03/13 04:28:01;;;;;;;1.30;0.90;;;22.50;48.70;;;;;;5033359;28;20904;-68
2021/03/13 04:30:27;;;;;;;1.37;1.17;;;22.50;48.70;;;;;;5033439;28;20438;-69
2021/03/13 04:32:56;;;;;;;1.23;1.03;;;22.50;48.70;;;;;;5033824;28;20191;-69
2021/03/13 04:35:25;;;;;;;1.30;0.90;;;22.50;48.70;;;;;;5033282;28;20627;-68
2021/03/13 04:37:52;;;;;;;1.50;1.37;;;22.50;48.60;;;;;;5033426;28;20458;-68
2021/03/13 04:40:17;;;;;;;1.00;0.90;;;22.50;48.60;;;;;;5033150;28;20434;-69
2021/03/13 04:42:45;;;;;;;1.23;0.90;;;22.50;48.60;;;;;;5033184;28;20406;-69
2021/03/13 04:45:14;;;;;;;1.20;0.80;;;22.60;48.70;;;;;;5033158;28;20176;-69
2021/03/13 04:47:50;;;;;;;2.47;1.20;;;22.50;48.60;;;;;;5033369;28;20458;-69
2021/03/13 04:50:18;;;;;;;1.77;0.80;;;22.50;48.60;;;;;;5032995;28;20430;-69
2021/03/13 04:52:44;;;;;;;1.20;1.00;;;22.50;48.70;;;;;;5033121;28;20415;-69
2021/03/13 04:55:10;;;;;;;1.73;1.00;;;22.50;48.70;;;;;;5033308;28;20414;-69
2021/03/13 04:57:36;;;;;;;1.87;1.13;;;22.50;48.70;;;;;;5033065;28;20251;-67
2021/03/13 05:00:05;;;;;;;1.60;0.83;;;22.50;48.70;;;;;;5031736;28;20953;-69
2021/03/13 05:02:30;;;;;;;1.40;1.07;;;22.50;48.70;;;;;;5032956;28;20167;-69
2021/03/13 05:04:56;;;;;;;1.53;1.23;;;22.50;48.70;;;;;;5032966;28;20411;-68
2021/03/13 05:07:21;;;;;;;1.60;1.17;;;22.50;48.70;;;;;;5033129;28;20663;-69
2021/03/13 05:09:47;;;;;;;1.80;1.40;;;22.50;48.70;;;;;;5032907;28;20282;-69
2021/03/13 05:12:12;;;;;;;2.30;1.00;;;22.50;48.70;;;;;;5032947;28;20175;-69
2021/03/13 05:14:39;;;;;;;1.67;1.17;;;22.50;48.70;;;;;;5033352;28;20294;-69
2021/03/13 05:17:04;;;;;;;2.40;1.10;;;22.50;48.70;;;;;;5035723;28;20222;-69
2021/03/13 05:19:30;;;;;;;1.40;1.20;;;22.50;48.70;;;;;;5036845;28;20484;-68
2021/03/13 05:21:56;;;;;;;1.10;0.90;;;22.50;48.80;;;;;;5036927;28;20546;-69
2021/03/13 05:24:22;;;;;;;1.43;1.10;;;22.50;48.70;;;;;;5037074;28;20662;-69
2021/03/13 05:26:48;;;;;;;1.60;0.90;;;22.50;48.70;;;;;;5036704;28;20454;-69
2021/03/13 05:29:13;;;;;;;1.50;1.00;;;22.50;48.70;;;;;;5036698;28;20283;-69
2021/03/13 05:31:39;;;;;;;1.73;1.20;;;22.50;48.70;;;;;;5036819;28;20178;-69
2021/03/13 05:34:05;;;;;;;1.30;0.80;;;22.50;48.70;;;;;;5036587;28;20202;-69
2021/03/13 05:36:30;;;;;;;1.40;1.10;;;22.50;48.70;;;;;;5035228;28;20505;-69
2021/03/13 05:38:56;;;;;;;1.30;1.03;;;22.50;48.70;;;;;;5036529;28;20203;-69
2021/03/13 05:41:22;;;;;;;1.97;1.27;;;22.50;48.70;;;;;;5036671;28;20172;-69
2021/03/13 05:43:48;;;;;;;2.30;1.13;;;22.40;48.60;;;;;;5036536;28;20282;-69
2021/03/13 05:46:15;;;;;;;2.23;1.10;;;22.50;48.70;;;;;;5036413;28;20699;-68
2021/03/13 05:48:45;;;;;;;1.40;1.10;;;22.50;48.80;;;;;;5036451;28;20437;-69
2021/03/13 05:51:13;;;;;;;1.47;1.00;;;22.50;48.80;;;;;;5037060;28;20890;-69
2021/03/13 05:53:40;;;;;;;1.43;0.97;;;22.50;48.80;;;;;;5036277;28;20409;-69
2021/03/13 05:56:08;;;;;;;1.23;0.83;;;22.50;48.80;;;;;;5036258;28;20963;-69
2021/03/13 05:58:35;;;;;;;1.40;1.03;;;22.60;48.90;;;;;;5036131;28;20476;-69
2021/03/13 06:01:01;;;;;;;1.40;0.97;;;22.60;48.90;;;;;;5036171;28;20414;-69
2021/03/13 06:03:26;;;;;;;1.20;1.00;;;22.60;49.50;;;;;;5036126;28;20419;-68
2021/03/13 06:05:53;;;;;;;1.17;0.80;;;22.60;49.00;;;;;;5036288;28;20651;-69
2021/03/13 06:08:19;;;;;;;1.43;1.00;;;22.60;48.90;;;;;;5036207;28;20195;-69
2021/03/13 06:10:44;;;;;;;1.40;1.00;;;22.60;48.90;;;;;;5035974;28;20885;-69
2021/03/13 06:13:11;;;;;;;1.53;1.00;;;22.60;48.90;;;;;;5035971;28;20421;-69
2021/03/13 06:15:36;;;;;;;1.37;1.00;;;22.60;48.90;;;;;;5035881;28;20197;-69
2021/03/13 06:18:03;;;;;;;1.40;0.93;;;22.60;48.90;;;;;;5035758;28;20414;-69
2021/03/13 06:20:37;;;;;;;1.07;0.80;;;22.70;49.00;;;;;;5035796;28;20178;-69
2021/03/13 06:23:14;;;;;;;2.17;0.90;;;22.70;48.90;;;;;;5035681;28;20411;-69
2021/03/13 06:25:42;;;;;;;1.60;1.07;;;22.70;49.00;;;;;;5036065;28;20409;-69
2021/03/13 06:28:13;;;;;;;1.40;1.10;;;22.70;49.00;;;;;;5034803;28;20406;-69
2021/03/13 06:30:45;;;;;;;1.63;1.10;;;22.70;49.00;;;;;;5035650;28;20740;-69
2021/03/13 06:33:23;;;;;;;1.83;1.00;;;22.70;48.90;;;;;;5035567;28;20477;-69
2021/03/13 06:35:50;;;;;;;1.50;1.00;;;22.70;48.90;;;;;;5035598;28;20460;-69
2021/03/13 06:38:21;;;;;;;1.33;0.90;;;22.70;48.90;;;;;;5035317;28;20454;-69
2021/03/13 06:40:49;;;;;;;1.50;1.00;;;22.70;48.90;;;;;;5035441;28;20456;-69
2021/03/13 06:43:26;;;;;;;1.30;1.07;;;22.70;48.90;;;;;;5034102;28;20848;-69
2021/03/13 06:46:01;;;;;;;2.40;1.00;;;22.70;48.90;;;;;;5034002;28;20424;-69
2021/03/13 06:48:29;;;;;;;1.37;1.07;;;22.70;48.90;;;;;;5035221;28;20430;-69
2021/03/13 06:51:13;;;;;;;0.90;0.60;;;22.70;48.90;;;;;;5035244;28;20854;-69
2021/03/13 06:53:39;;;;;;;1.10;0.90;;;22.70;48.80;;;;;;5035213;28;20427;-69
2021/03/13 06:56:12;;;;;;;1.17;0.80;;;22.70;48.90;;;;;;5035167;28;20454;-69
2021/03/13 06:58:39;;;;;;;1.00;0.80;;;22.70;48.90;;;;;;5033728;28;20442;-68
2021/03/13 07:01:05;;;;;;;1.93;1.50;;;22.70;48.80;;;;;;5035346;28;20415;-69
2021/03/13 07:03:32;;;;;;;1.13;1.03;;;22.70;48.80;;;;;;5035062;28;20414;-69
2021/03/13 07:05:58;;;;;;;1.10;0.90;;;22.80;48.90;;;;;;5035070;28;20459;-67
2021/03/13 07:08:30;;;;;;;1.33;0.90;;;22.80;48.90;;;;;;5034909;28;20952;-69
2021/03/13 07:11:10;;;;;;;1.17;0.90;;;22.80;48.90;;;;;;5034951;28;20582;-69
2021/03/13 07:13:40;;;;;;;1.07;0.80;;;22.80;48.90;;;;;;5034823;28;20457;-69
2021/03/13 07:16:38;;;;;;;1.37;1.00;;;22.80;48.90;;;;;;5035101;28;20844;-69
2021/03/13 07:19:09;;;;;;;1.90;1.10;;;22.80;48.90;;;;;;5034673;28;20430;-69
2021/03/13 07:21:38;;;;;;;1.30;0.90;;;22.80;48.90;;;;;;5035009;28;20410;-67
2021/03/13 07:24:06;;;;;;;2.30;1.10;;;22.80;48.90;;;;;;5034894;28;20414;-69
2021/03/13 07:26:42;;;;;;;1.73;0.97;;;22.80;48.90;;;;;;5033197;28;20519;-69
2021/03/13 07:29:10;;;;;;;1.50;1.40;;;22.80;48.90;;;;;;5034591;28;20880;-69
2021/03/13 07:31:41;;;;;;;1.40;1.10;;;22.80;48.80;;;;;;5033117;28;20422;-69
2021/03/13 07:34:19;;;;;;;1.00;0.80;;;22.80;48.80;;;;;;5034403;28;20402;-69
2021/03/13 07:36:54;;;;;;;1.67;0.90;;;22.80;48.90;;;;;;5034465;28;20856;-69
2021/03/13 07:39:22;;;;;;;1.80;1.00;;;22.80;48.80;;;;;;5033203;28;20465;-69
2021/03/13 07:42:10;;;;;;;1.50;0.80;;;22.80;48.80;;;;;;5034192;28;20481;-69
2021/03/13 07:44:36;;;;;;;1.53;1.43;;;22.80;48.80;;;;;;5034538;28;20398;-69
2021/03/13 07:47:02;;;;;;;1.10;0.90;;;22.80;48.80;;;;;;5034105;28;20476;-69
2021/03/13 07:49:30;;;;;;;1.13;0.80;;;22.80;48.80;;;;;;5034182;28;20801;-69
2021/03/13 07:51:59;;;;;;;1.23;0.80;;;22.80;48.80;;;;;;5034042;28;20407;-69
2021/03/13 07:54:26;;;;;;;1.20;0.97;;;22.80;48.80;;;;;;5034254;28;20416;-69
2021/03/13 07:56:52;;;;;;;1.10;0.80;;;22.80;48.80;;;;;;5034067;28;20497;-69
2021/03/13 07:59:41;;;;;;;1.33;0.90;;;22.80;48.80;;;;;;5033888;28;20458;-69
2021/03/13 08:02:07;;;;;;;1.20;1.00;;;22.80;48.80;;;;;;5033931;28;21028;-69
2021/03/13 08:04:42;;;;;;;1.13;0.83;;;22.80;48.90;;;;;;5032592;28;20426;-68
2021/03/13 08:07:07;;;;;;;0.97;0.77;;;22.80;48.80;;;;;;5033707;28;20252;-69
2021/03/13 08:09:44;;;;;;;1.43;0.90;;;22.80;48.80;;;;;;5033715;28;20433;-69
2021/03/13 08:12:11;;;;;;;1.00;0.80;;;22.80;48.80;;;;;;5033729;28;20615;-68
2021/03/13 08:14:37;;;;;;;1.20;0.73;;;22.80;48.80;;;;;;5033683;28;20414;-69
2021/03/13 08:17:10;;;;;;;1.83;1.00;;;22.80;48.80;;;;;;5034428;28;20414;-68
2021/03/13 08:19:38;;;;;;;1.40;0.83;;;22.80;48.80;;;;;;5033572;28;20438;-68
2021/03/13 08:22:23;;;;;;;1.80;1.23;;;22.80;48.80;;;;;;5033845;28;20490;-68
2021/03/13 08:24:53;;;;;;;1.00;0.70;;;22.80;48.80;;;;;;5033554;28;20481;-68
2021/03/13 08:27:45;;;;;;;1.00;0.77;;;22.80;48.90;;;;;;5033409;28;20457;-69
2021/03/13 08:30:22;;;;;;;1.43;1.20;;;22.80;48.80;;;;;;5031613;28;20805;-69
2021/03/13 08:33:02;;;;;;;1.23;0.77;;;22.80;48.80;;;;;;5033383;28;20410;-69
2021/03/13 08:35:35;;;;;;;1.10;0.70;;;22.80;48.90;;;;;;5033456;28;20445;-69
2021/03/13 08:38:02;;;;;;;2.17;0.70;;;22.80;48.80;;;;;;5033140;28;20979;-69
2021/03/13 08:40:28;;;;;;;1.57;0.90;;;22.80;48.80;;;;;;5033260;28;20498;-69
2021/03/13 08:42:54;;;;;;;1.30;0.80;;;22.80;48.80;;;;;;5033217;28;20939;-69
2021/03/13 08:45:20;;;;;;;0.87;0.70;;;22.80;48.80;;;;;;5033215;28;20423;-69
2021/03/13 08:47:54;;;;;;;1.30;0.90;;;22.80;48.80;;;;;;5033084;28;20207;-68
2021/03/13 08:50:47;;;;;;;1.23;0.70;;;22.80;48.80;;;;;;5032820;28;20472;-69
2021/03/13 08:53:35;;;;;;;1.30;1.00;;;22.90;48.80;;;;;;5033317;28;20407;-69
2021/03/13 08:56:03;;;;;;;1.40;0.90;;;22.90;48.80;;;;;;5033304;28;20410;-69
2021/03/13 08:58:39;;;;;;;1.57;1.00;;;22.80;48.80;;;;;;5033004;28;21020;-69
2021/03/13 09:01:22;;;;;;;1.00;0.70;;;22.90;48.80;;;;;;5033109;28;20923;-69
2021/03/13 09:03:50;;;;;;;1.20;0.70;;;22.90;48.80;;;;;;5033107;28;20780;-69
2021/03/13 09:06:18;;;;;;;2.80;1.00;;;22.90;48.80;;;;;;5031638;28;20492;-69
2021/03/13 09:08:44;;;;;;;1.20;1.00;;;22.90;48.80;;;;;;5033135;28;20522;-68
2021/03/13 09:11:09;;;;;;;0.90;0.70;;;22.90;48.80;;;;;;5033211;28;20852;-69
2021/03/13 09:13:35;;;;;;;1.10;1.00;;;22.90;48.80;;;;;;5033670;28;20542;-69
2021/03/13 09:16:15;;;;;;;1.00;0.70;;;22.90;48.80;;;;;;5032951;28;20190;-68
2021/03/13 09:18:53;;;;;;;1.13;0.90;;;22.90;48.70;;;;;;5033194;28;20195;-67
2021/03/13 09:21:51;;;;;;;1.00;0.70;;;22.90;48.80;;;;;;5033256;28;20489;-69
2021/03/13 09:24:34;;;;;;;1.10;0.80;;;22.90;48.70;;;;;;5009821;28;20477;-69
2021/03/13 09:27:01;;;;;;;1.10;0.70;;;22.90;48.80;;;;;;5033093;28;20453;-69
2021/03/13 09:29:35;;;;;;;1.20;0.80;;;22.90;48.80;;;;;;5032760;28;20456;-68
2021/03/13 09:32:12;;;;;;;2.13;0.80;;;22.90;48.80;;;;;;5032850;28;20406;-69
2021/03/13 09:34:42;;;;;;;0.97;0.77;;;22.90;48.80;;;;;;5032740;28;20390;-69
2021/03/13 09:37:18;;;;;;;1.43;0.90;;;22.90;48.80;;;;;;5032845;28;20438;-69
2021/03/13 09:39:58;;;;;;;1.23;0.90;;;22.90;48.80;;;;;;5032621;28;20437;-69
2021/03/13 09:42:25;;;;;;;1.30;0.80;;;22.90;48.70;;;;;;5032666;28;20391;-69
2021/03/13 09:45:00;;;;;;;1.37;0.87;;;22.90;48.80;;;;;;5032606;28;20418;-69
2021/03/13 09:47:40;;;;;;;1.23;0.80;;;23.00;48.90;;;;;;5032624;28;20484;-69
2021/03/13 09:50:20;;;;;;;1.40;1.10;;;23.00;48.80;;;;;;5032599;28;20488;-69
2021/03/13 09:52:48;;;;;;;1.20;0.87;;;23.00;48.80;;;;;;5033078;28;20483;-69
2021/03/13 09:55:17;;;;;;;1.20;0.70;;;22.90;48.70;;;;;;5032812;28;20480;-69
2021/03/13 09:57:54;;;;;;;1.00;0.70;;;22.90;48.70;;;;;;5032648;28;20445;-69
2021/03/13 10:00:25;;;;;;;3.80;1.10;;;23.00;48.80;;;;;;5032557;28;20422;-69
2021/03/13 10:02:53;;;;;;;1.57;1.00;;;23.00;48.80;;;;;;5034926;28;20387;-69
2021/03/13 10:05:25;;;;;;;1.60;1.03;;;23.00;48.80;;;;;;5036212;28;20418;-69
2021/03/13 10:07:52;;;;;;;1.80;1.10;;;23.00;48.80;;;;;;5036056;28;20462;-69
2021/03/13 10:10:23;;;;;;;1.97;0.87;;;23.00;48.70;;;;;;5036079;28;20426;-69
2021/03/13 10:12:58;;;;;;;1.80;1.20;;;23.00;48.70;;;;;;5036079;28;20410;-69
2021/03/13 10:15:31;;;;;;;5.57;1.73;;;23.00;48.70;;;;;;5036347;28;20428;-69
2021/03/13 10:18:17;;;;;;;2.03;1.20;;;23.00;48.70;;;;;;5035973;28;20417;-68
2021/03/13 10:20:45;;;;;;;2.00;1.10;;;23.00;48.70;;;;;;5035951;28;20501;-69
2021/03/13 10:23:15;;;;;;;1.90;1.30;;;23.00;49.20;;;;;;5036210;28;20414;-69
2021/03/13 10:25:59;;;;;;;2.90;1.97;;;23.00;48.70;;;;;;5035639;28;20414;-68
2021/03/13 10:28:33;;;;;;;3.43;1.40;;;23.00;48.70;;;;;;5035828;28;20921;-69
2021/03/13 10:31:19;;;;;;;1.40;1.13;;;23.00;48.70;;;;;;5035785;28;20413;-69
2021/03/13 10:33:45;;;;;;;4.50;1.40;;;23.00;48.70;;;;;;5036056;28;20409;-69
2021/03/13 10:36:13;;;;;;;3.07;1.50;;;23.00;48.70;;;;;;5034240;28;21025;-69
2021/03/13 10:38:44;;;;;;;3.30;1.10;;;23.00;48.70;;;;;;5034214;28;20435;-69
2021/03/13 10:41:12;;;;;;;3.43;1.60;;;23.00;48.70;;;;;;5035676;28;20505;-69
2021/03/13 10:43:39;;;;;;;1.60;1.27;;;23.00;48.70;;;;;;5034295;28;20414;-69
2021/03/13 10:46:12;;;;;;;2.20;1.57;;;23.00;48.70;;;;;;5035342;28;20941;-69
2021/03/13 10:49:00;;;;;;;2.20;1.50;;;23.00;48.70;;;;;;5035633;28;20462;-69
2021/03/13 10:51:35;;;;;;;2.67;1.53;;;23.00;48.70;;;;;;5035395;28;20399;-69
2021/03/13 10:54:03;;;;;;;1.90;1.43;;;23.00;48.70;;;;;;5035239;28;20406;-69
2021/03/13 10:56:42;;;;;;;2.00;1.47;;;23.00;48.70;;;;;;5035188;28;20402;-69
2021/03/13 10:59:08;;;;;;;2.80;1.27;;;23.00;48.70;;;;;;5035018;28;20434;-68
2021/03/13 11:01:34;;;;;;;2.13;1.50;;;23.00;48.70;;;;;;5037013;28;20425;-65
2021/03/13 11:04:00;;;;;;;3.23;1.60;;;23.00;48.70;;;;;;5033735;28;20415;-65
2021/03/13 11:06:33;;;;;;;5.20;1.90;;;22.90;48.60;;;;;;5033635;28;20541;-65
2021/03/13 11:09:05;;;;;;;2.10;1.50;;;22.90;48.60;;;;;;5034850;28;20234;-68
2021/03/13 11:11:30;;;;;;;3.13;1.20;;;22.90;48.70;;;;;;5035391;28;20750;-64
2021/03/13 11:13:56;;;;;;;2.80;1.43;;;22.90;48.70;;;;;;5034537;28;20411;-64
2021/03/13 11:16:22;;;;;;;2.97;1.60;;;23.00;48.70;;;;;;5034788;28;20599;-65
2021/03/13 11:18:55;;;;;;;2.80;1.40;;;23.00;48.70;;;;;;5034718;28;20712;-66
2021/03/13 11:21:22;;;;;;;1.57;1.33;;;23.00;48.60;;;;;;5035322;28;20720;-66
2021/03/13 11:23:49;;;;;;;2.83;1.60;;;23.00;48.60;;;;;;5034667;28;20410;-66
2021/03/13 11:26:15;;;;;;;3.00;1.40;;;23.00;49.10;;;;;;5034573;28;20465;-65
2021/03/13 11:28:41;;;;;;;2.60;1.67;;;23.00;48.60;;;;;;5034620;28;20505;-65
2021/03/13 11:31:06;;;;;;;2.50;1.37;;;23.00;48.60;;;;;;5034550;28;20494;-66
2021/03/13 11:33:32;;;;;;;1.67;1.30;;;23.00;48.50;;;;;;5034570;28;20175;-65
2021/03/13 11:35:58;;;;;;;2.30;1.30;;;23.10;48.60;;;;;;5034302;28;20164;-66
2021/03/13 11:38:24;;;;;;;3.23;1.87;;;23.00;48.50;;;;;;5034352;28;20460;-65
2021/03/13 11:40:49;;;;;;;3.20;1.20;;;23.10;48.60;;;;;;5034329;28;20190;-65
2021/03/13 11:43:15;;;;;;;2.90;1.40;;;23.10;48.60;;;;;;5034543;28;20168;-66
2021/03/13 11:45:40;;;;;;;2.80;1.40;;;23.10;48.60;;;;;;5034221;28;20646;-65
2021/03/13 11:48:06;;;;;;;2.17;1.47;;;23.10;48.60;;;;;;5034270;28;20281;-66
2021/03/13 11:50:32;;;;;;;3.70;1.93;;;23.10;48.50;;;;;;5034174;28;20172;-66
2021/03/13 11:52:58;;;;;;;2.83;1.80;;;23.10;48.60;;;;;;5034058;28;20468;-66
2021/03/13 11:55:25;;;;;;;4.00;1.50;;;23.10;48.50;;;;;;5034314;28;20176;-66
2021/03/13 11:57:51;;;;;;;4.50;1.73;;;23.10;48.50;;;;;;5033964;28;20521;-65
2021/03/13 12:00:18;;;;;;;1.90;1.10;;;23.10;48.60;;;;;;5033947;28;20427;-66
2021/03/13 12:02:44;;;;;;;2.17;1.07;;;23.10;48.60;;;;;;5033929;28;20913;-65
2021/03/13 12:05:10;;;;;;;3.93;1.63;;;23.10;48.60;;;;;;5034195;28;20407;-65
2021/03/13 12:07:40;;;;;;;1.60;1.13;;;23.10;48.60;;;;;;5034058;28;20207;-65
2021/03/13 12:10:07;;;;;;;2.03;1.37;;;23.10;48.60;;;;;;5033755;28;20433;-65
2021/03/13 12:12:33;;;;;;;2.13;1.10;;;23.10;48.60;;;;;;5034062;28;20434;-66
2021/03/13 12:14:59;;;;;;;4.60;1.70;;;23.10;48.60;;;;;;5033968;28;20442;-65
2021/03/13 12:17:25;;;;;;;2.67;1.40;;;23.10;48.60;;;;;;5033648;28;20230;-65
2021/03/13 12:19:51;;;;;;;2.53;1.27;;;23.10;48.60;;;;;;5033566;28;20271;-65
2021/03/13 12:22:16;;;;;;;3.33;1.20;;;23.10;48.60;;;;;;5033603;28;20190;-65
2021/03/13 12:24:42;;;;;;;2.40;1.37;;;23.10;48.60;;;;;;5032938;28;20411;-65
2021/03/13 12:27:09;;;;;;;3.20;1.33;;;23.10;48.60;;;;;;5033300;28;20561;-65
2021/03/13 12:29:35;;;;;;;2.87;1.40;;;23.10;48.60;;;;;;5033400;28;20271;-65
2021/03/13 12:32:01;;;;;;;2.23;1.37;;;23.10;48.60;;;;;;5032533;28;20441;-64
2021/03/13 12:34:26;;;;;;;5.87;1.90;;;23.10;48.70;;;;;;5033638;28;20402;-66
2021/03/13 12:36:52;;;;;;;5.13;1.80;;;23.10;48.70;;;;;;5033239;28;20187;-63
2021/03/13 12:39:18;;;;;;;2.83;1.27;;;23.10;48.70;;;;;;5033293;28;20248;-62
2021/03/13 12:41:45;;;;;;;1.93;0.90;;;23.10;48.70;;;;;;5033309;28;20182;-65
2021/03/13 12:44:11;;;;;;;2.27;1.30;;;23.10;48.70;;;;;;5033827;28;20977;-64
2021/03/13 12:46:37;;;;;;;2.37;1.80;;;23.10;49.30;;;;;;5033142;28;20537;-66
2021/03/13 12:49:02;;;;;;;2.07;1.17;;;23.10;48.70;;;;;;5033103;28;20592;-67
2021/03/13 12:51:29;;;;;;;1.87;1.10;;;23.10;48.70;;;;;;5033157;28;20246;-65
2021/03/13 12:53:54;;;;;;;1.30;0.93;;;23.10;48.70;;;;;;5033371;28;20259;-66
2021/03/13 12:56:20;;;;;;;1.47;1.37;;;23.10;48.70;;;;;;5033560;28;20442;-66
2021/03/13 12:58:45;;;;;;;2.10;1.07;;;23.10;48.70;;;;;;5033029;28;20191;-66
2021/03/13 13:01:11;;;;;;;1.10;0.97;;;23.10;48.70;;;;;;5033062;28;20167;-67